ココス (キーリング) 諸島 の空港の天気 - METARとTAF

ココス島国際空港 ( YPCC / CCK ) - ココス諸島 ココス (キーリング) 諸島
飛行場実況気象(Metar)
観測時間01/19 17:30 CCT (01/19 11:00 UTC)
風向・風速南 10m/s
視程10km以上
天気現象
全天の4割程度の雲 雲底高度 670m
全天の8割程度の雲 雲底高度 1890m
気温27℃
湿度79%
気圧1007hPa
METARYPCC 191100Z AUTO 17019KT 9999 // SCT022 BKN062 27/23 Q1007
過去の天気等 Google飛行場航空写真 Wunderground天気予報

過去48時間のMETAR

飛行場予報(TAF)
発表時間: 1/19 11:39 CCT (1/19 05:09 UTC)
予報対象時間: 19日12時 CCT ~ 20日12時 CCT
風向・風速南南東 6m/s
視程10km以上
天気現象弱いしゅう雨
少しの雲 雲底高度 610m
全天の8割程度の雲 雲底高度 760m
19日12時 CCT ~ 19日22時 CCT に一時的に
視程3000m
天気現象しゅう雨
全天の8割程度の雲 雲底高度 300m
19日22時 CCT ~ 20日12時 CCT に一時的に
風向・風速不定 10m/s 瞬間風速 15m/s
視程1000m
天気現象雷雨
全天の8割程度の雲 雲底高度 240m
少しの積乱雲 雲底高度 760m
TAF YPCC 190509Z 1906/2006 16012KT 9999 -SHRA FEW020 BKN025
TEMPO 1906/1916 3000 SHRA BKN010
TEMPO 1916/2006 VRB20G30KT 1000 TSRA BKN008 FEW025CB